sensor_id;sensor_type;location;lat;lon;timestamp;P1;durP1;ratioP1;P2;durP2;ratioP2
13067;SDS011;6600;51.362;6.686;2022-09-13T00:01:13;2.20;;;2.00;;
13067;SDS011;6600;51.362;6.686;2022-09-13T00:03:38;3.50;;;1.83;;
13067;SDS011;6600;51.362;6.686;2022-09-13T00:06:11;2.00;;;1.80;;
13067;SDS011;6600;51.362;6.686;2022-09-13T00:08:39;2.00;;;1.60;;
13067;SDS011;6600;51.362;6.686;2022-09-13T00:11:05;2.07;;;1.80;;
13067;SDS011;6600;51.362;6.686;2022-09-13T00:13:31;1.67;;;1.57;;
13067;SDS011;6600;51.362;6.686;2022-09-13T00:15:57;1.83;;;1.50;;
13067;SDS011;6600;51.362;6.686;2022-09-13T00:18:25;3.40;;;2.33;;
13067;SDS011;6600;51.362;6.686;2022-09-13T00:20:50;2.20;;;1.60;;
13067;SDS011;6600;51.362;6.686;2022-09-13T00:23:16;3.27;;;1.53;;
13067;SDS011;6600;51.362;6.686;2022-09-13T00:25:41;1.80;;;1.67;;
13067;SDS011;6600;51.362;6.686;2022-09-13T00:28:07;1.77;;;1.63;;
13067;SDS011;6600;51.362;6.686;2022-09-13T00:30:32;2.30;;;1.50;;
13067;SDS011;6600;51.362;6.686;2022-09-13T00:32:58;2.03;;;1.83;;
13067;SDS011;6600;51.362;6.686;2022-09-13T00:35:24;1.63;;;1.47;;
13067;SDS011;6600;51.362;6.686;2022-09-13T00:37:49;2.60;;;1.70;;
13067;SDS011;6600;51.362;6.686;2022-09-13T00:40:15;2.23;;;1.53;;
13067;SDS011;6600;51.362;6.686;2022-09-13T00:42:40;2.30;;;1.77;;
13067;SDS011;6600;51.362;6.686;2022-09-13T00:52:51;1.70;;;1.60;;
13067;SDS011;6600;51.362;6.686;2022-09-13T00:57:53;2.23;;;1.80;;
13067;SDS011;6600;51.362;6.686;2022-09-13T01:00:24;2.00;;;1.80;;
13067;SDS011;6600;51.362;6.686;2022-09-13T01:02:54;2.40;;;1.80;;
13067;SDS011;6600;51.362;6.686;2022-09-13T01:05:25;3.07;;;2.30;;
13067;SDS011;6600;51.362;6.686;2022-09-13T01:07:54;3.90;;;2.10;;
13067;SDS011;6600;51.362;6.686;2022-09-13T01:10:21;2.93;;;2.20;;
13067;SDS011;6600;51.362;6.686;2022-09-13T01:15:28;3.10;;;1.80;;
13067;SDS011;6600;51.362;6.686;2022-09-13T01:17:54;1.73;;;1.50;;
13067;SDS011;6600;51.362;6.686;2022-09-13T01:20:22;3.80;;;2.43;;
13067;SDS011;6600;51.362;6.686;2022-09-13T01:25:57;3.20;;;2.33;;
13067;SDS011;6600;51.362;6.686;2022-09-13T01:34:41;1.87;;;1.50;;
13067;SDS011;6600;51.362;6.686;2022-09-13T01:38:01;2.07;;;1.60;;
13067;SDS011;6600;51.362;6.686;2022-09-13T01:48:54;2.77;;;1.80;;
13067;SDS011;6600;51.362;6.686;2022-09-13T01:51:43;3.17;;;2.03;;
13067;SDS011;6600;51.362;6.686;2022-09-13T01:54:15;2.73;;;1.67;;
13067;SDS011;6600;51.362;6.686;2022-09-13T02:08:05;2.27;;;1.60;;
13067;SDS011;6600;51.362;6.686;2022-09-13T02:10:38;1.83;;;1.73;;
13067;SDS011;6600;51.362;6.686;2022-09-13T02:13:19;2.40;;;1.63;;
13067;SDS011;6600;51.362;6.686;2022-09-13T02:15:51;2.57;;;1.90;;
13067;SDS011;6600;51.362;6.686;2022-09-13T02:21:00;2.30;;;1.77;;
13067;SDS011;6600;51.362;6.686;2022-09-13T02:23:40;2.10;;;1.80;;
13067;SDS011;6600;51.362;6.686;2022-09-13T02:26:09;2.90;;;1.80;;
13067;SDS011;6600;51.362;6.686;2022-09-13T02:28:40;1.70;;;1.60;;
13067;SDS011;6600;51.362;6.686;2022-09-13T02:31:11;3.80;;;2.13;;
13067;SDS011;6600;51.362;6.686;2022-09-13T02:33:47;1.70;;;1.60;;
13067;SDS011;6600;51.362;6.686;2022-09-13T02:36:27;2.10;;;1.80;;
13067;SDS011;6600;51.362;6.686;2022-09-13T02:38:59;1.60;;;1.50;;
13067;SDS011;6600;51.362;6.686;2022-09-13T02:57:19;4.07;;;1.87;;
13067;SDS011;6600;51.362;6.686;2022-09-13T02:59:53;1.93;;;1.67;;
13067;SDS011;6600;51.362;6.686;2022-09-13T03:02:19;2.30;;;1.70;;
13067;SDS011;6600;51.362;6.686;2022-09-13T03:04:49;3.73;;;2.03;;
13067;SDS011;6600;51.362;6.686;2022-09-13T03:07:15;2.33;;;1.47;;
13067;SDS011;6600;51.362;6.686;2022-09-13T03:09:57;2.43;;;2.10;;
13067;SDS011;6600;51.362;6.686;2022-09-13T03:31:12;2.87;;;1.93;;
13067;SDS011;6600;51.362;6.686;2022-09-13T03:34:09;2.83;;;1.57;;
13067;SDS011;6600;51.362;6.686;2022-09-13T03:37:31;3.23;;;1.50;;
13067;SDS011;6600;51.362;6.686;2022-09-13T03:39:59;2.10;;;1.90;;
13067;SDS011;6600;51.362;6.686;2022-09-13T03:45:50;2.03;;;1.70;;
13067;SDS011;6600;51.362;6.686;2022-09-13T03:48:19;2.50;;;1.77;;
13067;SDS011;6600;51.362;6.686;2022-09-13T03:50:46;2.47;;;1.87;;
13067;SDS011;6600;51.362;6.686;2022-09-13T03:53:14;2.13;;;1.83;;
13067;SDS011;6600;51.362;6.686;2022-09-13T03:55:47;2.80;;;2.20;;
13067;SDS011;6600;51.362;6.686;2022-09-13T03:58:13;2.70;;;1.93;;
13067;SDS011;6600;51.362;6.686;2022-09-13T04:00:41;1.60;;;1.50;;
13067;SDS011;6600;51.362;6.686;2022-09-13T04:03:07;3.07;;;2.07;;
13067;SDS011;6600;51.362;6.686;2022-09-13T04:05:33;2.03;;;1.70;;
13067;SDS011;6600;51.362;6.686;2022-09-13T04:07:59;2.17;;;1.97;;
13067;SDS011;6600;51.362;6.686;2022-09-13T04:10:26;1.90;;;1.63;;
13067;SDS011;6600;51.362;6.686;2022-09-13T04:12:52;2.00;;;1.80;;
13067;SDS011;6600;51.362;6.686;2022-09-13T04:15:18;3.30;;;2.20;;
13067;SDS011;6600;51.362;6.686;2022-09-13T04:17:44;2.43;;;2.03;;
13067;SDS011;6600;51.362;6.686;2022-09-13T04:20:09;3.03;;;1.73;;
13067;SDS011;6600;51.362;6.686;2022-09-13T04:22:35;2.63;;;1.97;;
13067;SDS011;6600;51.362;6.686;2022-09-13T04:25:01;1.93;;;1.53;;
13067;SDS011;6600;51.362;6.686;2022-09-13T04:27:26;2.53;;;1.60;;
13067;SDS011;6600;51.362;6.686;2022-09-13T04:29:51;3.00;;;1.90;;
13067;SDS011;6600;51.362;6.686;2022-09-13T04:32:17;1.83;;;1.70;;
13067;SDS011;6600;51.362;6.686;2022-09-13T04:34:42;3.27;;;2.23;;
13067;SDS011;6600;51.362;6.686;2022-09-13T04:37:08;2.17;;;1.80;;
13067;SDS011;6600;51.362;6.686;2022-09-13T04:39:34;2.33;;;2.13;;
13067;SDS011;6600;51.362;6.686;2022-09-13T04:41:59;3.87;;;2.10;;
13067;SDS011;6600;51.362;6.686;2022-09-13T04:44:26;4.03;;;2.13;;
13067;SDS011;6600;51.362;6.686;2022-09-13T04:46:51;2.53;;;2.00;;
13067;SDS011;6600;51.362;6.686;2022-09-13T04:49:17;3.27;;;2.37;;
13067;SDS011;6600;51.362;6.686;2022-09-13T04:51:44;2.13;;;1.80;;
13067;SDS011;6600;51.362;6.686;2022-09-13T04:54:10;3.37;;;2.17;;
13067;SDS011;6600;51.362;6.686;2022-09-13T04:56:36;3.47;;;2.27;;
13067;SDS011;6600;51.362;6.686;2022-09-13T04:59:02;2.47;;;2.03;;
13067;SDS011;6600;51.362;6.686;2022-09-13T05:01:28;2.50;;;1.97;;
13067;SDS011;6600;51.362;6.686;2022-09-13T05:03:54;3.27;;;2.23;;
13067;SDS011;6600;51.362;6.686;2022-09-13T05:06:19;2.30;;;2.10;;
13067;SDS011;6600;51.362;6.686;2022-09-13T05:08:49;2.47;;;2.27;;
13067;SDS011;6600;51.362;6.686;2022-09-13T05:11:19;2.07;;;1.70;;
13067;SDS011;6600;51.362;6.686;2022-09-13T05:13:50;4.27;;;2.27;;
13067;SDS011;6600;51.362;6.686;2022-09-13T05:16:17;3.00;;;1.87;;
13067;SDS011;6600;51.362;6.686;2022-09-13T05:18:42;3.60;;;2.10;;
13067;SDS011;6600;51.362;6.686;2022-09-13T05:21:08;4.80;;;2.27;;
13067;SDS011;6600;51.362;6.686;2022-09-13T05:23:33;2.13;;;1.80;;
13067;SDS011;6600;51.362;6.686;2022-09-13T05:26:00;2.60;;;2.03;;
13067;SDS011;6600;51.362;6.686;2022-09-13T05:28:27;2.13;;;1.83;;
13067;SDS011;6600;51.362;6.686;2022-09-13T05:30:58;3.00;;;2.40;;
13067;SDS011;6600;51.362;6.686;2022-09-13T05:33:28;2.90;;;2.37;;
13067;SDS011;6600;51.362;6.686;2022-09-13T05:35:55;2.07;;;1.83;;
13067;SDS011;6600;51.362;6.686;2022-09-13T05:38:21;3.73;;;2.10;;
13067;SDS011;6600;51.362;6.686;2022-09-13T05:40:47;3.70;;;2.20;;
13067;SDS011;6600;51.362;6.686;2022-09-13T05:43:19;3.83;;;2.10;;
13067;SDS011;6600;51.362;6.686;2022-09-13T05:45:44;4.00;;;1.90;;
13067;SDS011;6600;51.362;6.686;2022-09-13T05:48:09;3.00;;;2.20;;
13067;SDS011;6600;51.362;6.686;2022-09-13T05:50:38;3.50;;;2.17;;
13067;SDS011;6600;51.362;6.686;2022-09-13T05:53:03;2.40;;;2.07;;
13067;SDS011;6600;51.362;6.686;2022-09-13T05:55:29;1.87;;;1.70;;
13067;SDS011;6600;51.362;6.686;2022-09-13T05:57:55;2.63;;;2.30;;
13067;SDS011;6600;51.362;6.686;2022-09-13T06:00:20;1.93;;;1.83;;
13067;SDS011;6600;51.362;6.686;2022-09-13T06:02:46;2.67;;;1.90;;
13067;SDS011;6600;51.362;6.686;2022-09-13T06:05:11;1.60;;;1.47;;
13067;SDS011;6600;51.362;6.686;2022-09-13T06:07:40;3.20;;;2.00;;
13067;SDS011;6600;51.362;6.686;2022-09-13T06:10:07;2.70;;;1.70;;
13067;SDS011;6600;51.362;6.686;2022-09-13T06:12:33;1.93;;;1.77;;
13067;SDS011;6600;51.362;6.686;2022-09-13T06:14:59;2.83;;;2.13;;
13067;SDS011;6600;51.362;6.686;2022-09-13T06:17:24;1.90;;;1.70;;
13067;SDS011;6600;51.362;6.686;2022-09-13T06:19:49;2.37;;;1.70;;
13067;SDS011;6600;51.362;6.686;2022-09-13T06:22:15;2.67;;;1.70;;
13067;SDS011;6600;51.362;6.686;2022-09-13T06:24:40;2.77;;;1.73;;
13067;SDS011;6600;51.362;6.686;2022-09-13T06:27:06;2.60;;;1.80;;
13067;SDS011;6600;51.362;6.686;2022-09-13T06:29:31;3.50;;;2.30;;
13067;SDS011;6600;51.362;6.686;2022-09-13T06:31:56;4.77;;;2.37;;
13067;SDS011;6600;51.362;6.686;2022-09-13T06:34:22;3.33;;;2.80;;
13067;SDS011;6600;51.362;6.686;2022-09-13T06:36:47;3.60;;;2.20;;
13067;SDS011;6600;51.362;6.686;2022-09-13T06:39:12;3.13;;;2.57;;
13067;SDS011;6600;51.362;6.686;2022-09-13T06:41:38;5.50;;;2.53;;
13067;SDS011;6600;51.362;6.686;2022-09-13T06:44:03;3.97;;;2.50;;
13067;SDS011;6600;51.362;6.686;2022-09-13T06:46:30;3.50;;;2.33;;
13067;SDS011;6600;51.362;6.686;2022-09-13T06:49:00;2.97;;;2.50;;
13067;SDS011;6600;51.362;6.686;2022-09-13T06:51:27;3.33;;;2.37;;
13067;SDS011;6600;51.362;6.686;2022-09-13T06:53:56;2.27;;;2.00;;
13067;SDS011;6600;51.362;6.686;2022-09-13T06:56:24;4.83;;;2.73;;
13067;SDS011;6600;51.362;6.686;2022-09-13T06:58:53;3.63;;;1.90;;
13067;SDS011;6600;51.362;6.686;2022-09-13T07:01:21;5.07;;;2.60;;
13067;SDS011;6600;51.362;6.686;2022-09-13T07:03:52;2.50;;;2.30;;
13067;SDS011;6600;51.362;6.686;2022-09-13T07:06:23;2.60;;;2.17;;
13067;SDS011;6600;51.362;6.686;2022-09-13T07:08:51;3.77;;;2.33;;
13067;SDS011;6600;51.362;6.686;2022-09-13T07:11:18;4.00;;;2.20;;
13067;SDS011;6600;51.362;6.686;2022-09-13T07:13:48;2.67;;;2.07;;
13067;SDS011;6600;51.362;6.686;2022-09-13T07:16:14;4.00;;;2.13;;
13067;SDS011;6600;51.362;6.686;2022-09-13T07:18:40;3.30;;;1.87;;
13067;SDS011;6600;51.362;6.686;2022-09-13T07:21:07;2.53;;;2.13;;
13067;SDS011;6600;51.362;6.686;2022-09-13T07:23:34;2.77;;;1.80;;
13067;SDS011;6600;51.362;6.686;2022-09-13T07:26:01;2.83;;;2.10;;
13067;SDS011;6600;51.362;6.686;2022-09-13T07:28:30;2.63;;;2.13;;
13067;SDS011;6600;51.362;6.686;2022-09-13T07:31:04;2.77;;;2.30;;
13067;SDS011;6600;51.362;6.686;2022-09-13T07:33:34;2.13;;;1.93;;
13067;SDS011;6600;51.362;6.686;2022-09-13T07:36:00;3.57;;;1.90;;
13067;SDS011;6600;51.362;6.686;2022-09-13T07:38:30;2.53;;;2.30;;
13067;SDS011;6600;51.362;6.686;2022-09-13T07:40:56;1.80;;;1.70;;
13067;SDS011;6600;51.362;6.686;2022-09-13T07:43:23;2.60;;;2.10;;
13067;SDS011;6600;51.362;6.686;2022-09-13T07:45:59;5.27;;;2.10;;
13067;SDS011;6600;51.362;6.686;2022-09-13T07:48:27;3.73;;;1.90;;
13067;SDS011;6600;51.362;6.686;2022-09-13T07:50:57;2.70;;;2.30;;
13067;SDS011;6600;51.362;6.686;2022-09-13T07:53:24;2.73;;;2.00;;
13067;SDS011;6600;51.362;6.686;2022-09-13T07:55:50;2.30;;;1.90;;
13067;SDS011;6600;51.362;6.686;2022-09-13T07:58:15;2.10;;;1.77;;
13067;SDS011;6600;51.362;6.686;2022-09-13T08:00:40;3.47;;;1.90;;
13067;SDS011;6600;51.362;6.686;2022-09-13T08:03:06;3.17;;;1.67;;
13067;SDS011;6600;51.362;6.686;2022-09-13T08:05:37;2.13;;;1.80;;
13067;SDS011;6600;51.362;6.686;2022-09-13T08:08:03;1.97;;;1.60;;
13067;SDS011;6600;51.362;6.686;2022-09-13T08:10:28;2.97;;;1.93;;
13067;SDS011;6600;51.362;6.686;2022-09-13T08:12:54;2.13;;;1.63;;
13067;SDS011;6600;51.362;6.686;2022-09-13T08:15:19;2.43;;;1.80;;
13067;SDS011;6600;51.362;6.686;2022-09-13T08:17:44;2.43;;;2.00;;
13067;SDS011;6600;51.362;6.686;2022-09-13T08:20:10;2.17;;;1.97;;
13067;SDS011;6600;51.362;6.686;2022-09-13T08:22:35;2.17;;;2.00;;
13067;SDS011;6600;51.362;6.686;2022-09-13T08:25:00;3.40;;;2.20;;
13067;SDS011;6600;51.362;6.686;2022-09-13T08:27:26;3.13;;;2.03;;
13067;SDS011;6600;51.362;6.686;2022-09-13T08:29:52;3.53;;;2.00;;
13067;SDS011;6600;51.362;6.686;2022-09-13T08:32:17;2.30;;;2.10;;
13067;SDS011;6600;51.362;6.686;2022-09-13T08:34:43;3.93;;;2.07;;
13067;SDS011;6600;51.362;6.686;2022-09-13T08:37:08;2.50;;;1.77;;
13067;SDS011;6600;51.362;6.686;2022-09-13T08:39:34;3.97;;;1.90;;
13067;SDS011;6600;51.362;6.686;2022-09-13T08:44:38;2.63;;;2.30;;
13067;SDS011;6600;51.362;6.686;2022-09-13T08:50:11;4.53;;;2.10;;
13067;SDS011;6600;51.362;6.686;2022-09-13T08:52:42;2.73;;;2.37;;
13067;SDS011;6600;51.362;6.686;2022-09-13T08:55:23;2.10;;;1.90;;
13067;SDS011;6600;51.362;6.686;2022-09-13T08:58:15;3.53;;;2.57;;
13067;SDS011;6600;51.362;6.686;2022-09-13T09:01:05;2.13;;;1.90;;
13067;SDS011;6600;51.362;6.686;2022-09-13T09:03:38;2.97;;;2.50;;
13067;SDS011;6600;51.362;6.686;2022-09-13T09:06:11;2.83;;;2.60;;
13067;SDS011;6600;51.362;6.686;2022-09-13T09:08:40;3.40;;;2.67;;
13067;SDS011;6600;51.362;6.686;2022-09-13T09:11:21;2.77;;;2.37;;
13067;SDS011;6600;51.362;6.686;2022-09-13T09:14:11;3.03;;;2.17;;
13067;SDS011;6600;51.362;6.686;2022-09-13T09:16:42;3.80;;;2.73;;
13067;SDS011;6600;51.362;6.686;2022-09-13T09:19:19;3.40;;;2.43;;
13067;SDS011;6600;51.362;6.686;2022-09-13T09:21:49;3.27;;;2.50;;
13067;SDS011;6600;51.362;6.686;2022-09-13T09:24:17;4.13;;;2.83;;
13067;SDS011;6600;51.362;6.686;2022-09-13T09:26:45;6.77;;;2.87;;
13067;SDS011;6600;51.362;6.686;2022-09-13T09:34:29;3.93;;;3.17;;
13067;SDS011;6600;51.362;6.686;2022-09-13T09:37:24;3.20;;;2.90;;
13067;SDS011;6600;51.362;6.686;2022-09-13T09:39:53;3.73;;;2.60;;
13067;SDS011;6600;51.362;6.686;2022-09-13T09:42:28;5.40;;;3.33;;
13067;SDS011;6600;51.362;6.686;2022-09-13T09:45:00;3.20;;;2.47;;
13067;SDS011;6600;51.362;6.686;2022-09-13T09:47:35;3.17;;;2.80;;
13067;SDS011;6600;51.362;6.686;2022-09-13T09:50:11;3.57;;;3.27;;
13067;SDS011;6600;51.362;6.686;2022-09-13T09:52:49;3.80;;;3.00;;
13067;SDS011;6600;51.362;6.686;2022-09-13T09:58:00;3.83;;;3.07;;
13067;SDS011;6600;51.362;6.686;2022-09-13T10:00:31;4.10;;;3.13;;
13067;SDS011;6600;51.362;6.686;2022-09-13T10:03:00;4.13;;;3.00;;
13067;SDS011;6600;51.362;6.686;2022-09-13T10:05:28;3.97;;;3.50;;
13067;SDS011;6600;51.362;6.686;2022-09-13T10:08:06;3.47;;;2.63;;
13067;SDS011;6600;51.362;6.686;2022-09-13T10:10:41;3.50;;;3.20;;
13067;SDS011;6600;51.362;6.686;2022-09-13T10:13:16;3.50;;;3.10;;
13067;SDS011;6600;51.362;6.686;2022-09-13T10:15:55;4.80;;;3.07;;
13067;SDS011;6600;51.362;6.686;2022-09-13T10:18:22;4.83;;;3.27;;
13067;SDS011;6600;51.362;6.686;2022-09-13T10:23:43;3.00;;;2.70;;
13067;SDS011;6600;51.362;6.686;2022-09-13T10:26:12;4.73;;;2.90;;
13067;SDS011;6600;51.362;6.686;2022-09-13T10:31:35;3.80;;;2.90;;
13067;SDS011;6600;51.362;6.686;2022-09-13T10:34:06;5.03;;;3.00;;
13067;SDS011;6600;51.362;6.686;2022-09-13T10:39:27;2.80;;;2.43;;
13067;SDS011;6600;51.362;6.686;2022-09-13T10:44:32;3.17;;;2.40;;
13067;SDS011;6600;51.362;6.686;2022-09-13T10:47:16;3.67;;;2.87;;
13067;SDS011;6600;51.362;6.686;2022-09-13T10:49:49;3.43;;;2.73;;
13067;SDS011;6600;51.362;6.686;2022-09-13T10:54:55;3.63;;;2.23;;
13067;SDS011;6600;51.362;6.686;2022-09-13T10:57:52;1.37;;;1.27;;
13067;SDS011;6600;51.362;6.686;2022-09-13T11:09:02;2.83;;;1.50;;
13067;SDS011;6600;51.362;6.686;2022-09-13T11:12:10;2.30;;;1.67;;
13067;SDS011;6600;51.362;6.686;2022-09-13T11:23:25;1.60;;;1.50;;
13067;SDS011;6600;51.362;6.686;2022-09-13T11:37:17;2.70;;;1.23;;
13067;SDS011;6600;51.362;6.686;2022-09-13T11:39:58;1.53;;;1.33;;
13067;SDS011;6600;51.362;6.686;2022-09-13T11:45:28;2.33;;;1.90;;
13067;SDS011;6600;51.362;6.686;2022-09-13T11:53:43;1.50;;;1.40;;
13067;SDS011;6600;51.362;6.686;2022-09-13T11:56:40;2.63;;;2.30;;
13067;SDS011;6600;51.362;6.686;2022-09-13T12:02:09;3.20;;;1.67;;
13067;SDS011;6600;51.362;6.686;2022-09-13T12:04:44;1.67;;;1.50;;
13067;SDS011;6600;51.362;6.686;2022-09-13T12:07:21;2.13;;;1.60;;
13067;SDS011;6600;51.362;6.686;2022-09-13T12:09:57;1.60;;;1.30;;
13067;SDS011;6600;51.362;6.686;2022-09-13T12:12:28;1.73;;;1.63;;
13067;SDS011;6600;51.362;6.686;2022-09-13T12:15:13;2.77;;;1.60;;
13067;SDS011;6600;51.362;6.686;2022-09-13T12:17:44;2.90;;;2.20;;
13067;SDS011;6600;51.362;6.686;2022-09-13T12:20:15;4.43;;;2.00;;
13067;SDS011;6600;51.362;6.686;2022-09-13T12:22:52;2.67;;;1.87;;
13067;SDS011;6600;51.362;6.686;2022-09-13T12:25:23;2.67;;;2.43;;
13067;SDS011;6600;51.362;6.686;2022-09-13T12:28:57;2.57;;;2.10;;
13067;SDS011;6600;51.362;6.686;2022-09-13T12:31:38;2.13;;;1.93;;
13067;SDS011;6600;51.362;6.686;2022-09-13T12:33:47;2.37;;;1.57;;
13067;SDS011;6600;51.362;6.686;2022-09-13T12:39:25;1.93;;;1.53;;
13067;SDS011;6600;51.362;6.686;2022-09-13T12:52:49;2.87;;;1.80;;
13067;SDS011;6600;51.362;6.686;2022-09-13T13:00:32;2.70;;;1.33;;
13067;SDS011;6600;51.362;6.686;2022-09-13T13:05:37;4.13;;;2.00;;
13067;SDS011;6600;51.362;6.686;2022-09-13T13:11:07;2.23;;;2.03;;
13067;SDS011;6600;51.362;6.686;2022-09-13T13:16:04;2.37;;;2.00;;
13067;SDS011;6600;51.362;6.686;2022-09-13T13:18:45;1.80;;;1.70;;
13067;SDS011;6600;51.362;6.686;2022-09-13T13:24:49;3.03;;;2.53;;
13067;SDS011;6600;51.362;6.686;2022-09-13T13:26:53;2.50;;;1.73;;
13067;SDS011;6600;51.362;6.686;2022-09-13T13:34:25;2.73;;;2.43;;
13067;SDS011;6600;51.362;6.686;2022-09-13T13:37:26;3.70;;;3.07;;
13067;SDS011;6600;51.362;6.686;2022-09-13T13:42:50;4.40;;;3.20;;
13067;SDS011;6600;51.362;6.686;2022-09-13T13:45:35;4.73;;;2.90;;
13067;SDS011;6600;51.362;6.686;2022-09-13T13:48:08;3.47;;;2.87;;
13067;SDS011;6600;51.362;6.686;2022-09-13T13:50:57;2.13;;;1.97;;
13067;SDS011;6600;51.362;6.686;2022-09-13T13:53:37;2.90;;;2.60;;
13067;SDS011;6600;51.362;6.686;2022-09-13T13:56:07;2.53;;;2.20;;
13067;SDS011;6600;51.362;6.686;2022-09-13T13:58:43;2.80;;;2.10;;
13067;SDS011;6600;51.362;6.686;2022-09-13T14:07:03;2.10;;;1.80;;
13067;SDS011;6600;51.362;6.686;2022-09-13T14:09:44;3.10;;;2.00;;
13067;SDS011;6600;51.362;6.686;2022-09-13T14:12:44;4.13;;;2.40;;
13067;SDS011;6600;51.362;6.686;2022-09-13T14:15:23;3.43;;;2.57;;
13067;SDS011;6600;51.362;6.686;2022-09-13T14:23:43;2.80;;;2.30;;
13067;SDS011;6600;51.362;6.686;2022-09-13T14:26:08;1.90;;;1.73;;
13067;SDS011;6600;51.362;6.686;2022-09-13T14:28:36;2.80;;;2.47;;
13067;SDS011;6600;51.362;6.686;2022-09-13T14:31:02;3.20;;;2.90;;
13067;SDS011;6600;51.362;6.686;2022-09-13T14:33:29;3.07;;;2.70;;
13067;SDS011;6600;51.362;6.686;2022-09-13T14:36:00;3.00;;;2.67;;
13067;SDS011;6600;51.362;6.686;2022-09-13T14:38:30;3.80;;;2.67;;
13067;SDS011;6600;51.362;6.686;2022-09-13T14:41:00;2.80;;;2.50;;
13067;SDS011;6600;51.362;6.686;2022-09-13T14:43:38;3.40;;;2.50;;
13067;SDS011;6600;51.362;6.686;2022-09-13T14:46:08;4.33;;;2.53;;
13067;SDS011;6600;51.362;6.686;2022-09-13T14:48:48;3.20;;;2.50;;
13067;SDS011;6600;51.362;6.686;2022-09-13T14:51:32;4.27;;;2.80;;
13067;SDS011;6600;51.362;6.686;2022-09-13T14:54:15;3.47;;;2.60;;
13067;SDS011;6600;51.362;6.686;2022-09-13T14:56:55;3.13;;;2.50;;
13067;SDS011;6600;51.362;6.686;2022-09-13T15:01:57;3.90;;;2.60;;
13067;SDS011;6600;51.362;6.686;2022-09-13T15:04:23;3.47;;;2.40;;
13067;SDS011;6600;51.362;6.686;2022-09-13T15:07:04;4.30;;;3.43;;
13067;SDS011;6600;51.362;6.686;2022-09-13T15:09:31;5.77;;;3.80;;
13067;SDS011;6600;51.362;6.686;2022-09-13T15:11:58;3.50;;;2.87;;
13067;SDS011;6600;51.362;6.686;2022-09-13T15:14:27;4.97;;;3.47;;
13067;SDS011;6600;51.362;6.686;2022-09-13T15:19:40;4.30;;;3.43;;
13067;SDS011;6600;51.362;6.686;2022-09-13T15:22:14;3.30;;;3.00;;
13067;SDS011;6600;51.362;6.686;2022-09-13T15:24:46;4.20;;;2.73;;
13067;SDS011;6600;51.362;6.686;2022-09-13T15:29:48;3.27;;;2.77;;
13067;SDS011;6600;51.362;6.686;2022-09-13T15:32:21;4.17;;;2.93;;
13067;SDS011;6600;51.362;6.686;2022-09-13T15:34:49;4.27;;;3.40;;
13067;SDS011;6600;51.362;6.686;2022-09-13T15:37:15;6.77;;;3.83;;
13067;SDS011;6600;51.362;6.686;2022-09-13T15:39:41;3.60;;;2.67;;
13067;SDS011;6600;51.362;6.686;2022-09-13T15:42:07;5.67;;;3.60;;
13067;SDS011;6600;51.362;6.686;2022-09-13T15:44:33;3.77;;;2.87;;
13067;SDS011;6600;51.362;6.686;2022-09-13T15:46:59;3.47;;;2.70;;
13067;SDS011;6600;51.362;6.686;2022-09-13T15:49:29;3.20;;;2.90;;
13067;SDS011;6600;51.362;6.686;2022-09-13T15:52:01;3.33;;;3.03;;
13067;SDS011;6600;51.362;6.686;2022-09-13T15:56:58;2.83;;;2.50;;
13067;SDS011;6600;51.362;6.686;2022-09-13T15:59:23;3.43;;;2.30;;
13067;SDS011;6600;51.362;6.686;2022-09-13T16:01:49;4.03;;;3.23;;
13067;SDS011;6600;51.362;6.686;2022-09-13T16:04:15;3.53;;;3.07;;
13067;SDS011;6600;51.362;6.686;2022-09-13T16:06:41;5.60;;;3.53;;
13067;SDS011;6600;51.362;6.686;2022-09-13T16:09:20;3.77;;;2.67;;
13067;SDS011;6600;51.362;6.686;2022-09-13T16:11:48;3.57;;;2.60;;
13067;SDS011;6600;51.362;6.686;2022-09-13T16:14:14;4.63;;;2.80;;
13067;SDS011;6600;51.362;6.686;2022-09-13T16:16:41;2.67;;;2.47;;
13067;SDS011;6600;51.362;6.686;2022-09-13T16:19:17;3.10;;;2.60;;
13067;SDS011;6600;51.362;6.686;2022-09-13T16:21:44;5.57;;;3.50;;
13067;SDS011;6600;51.362;6.686;2022-09-13T16:24:11;4.37;;;2.90;;
13067;SDS011;6600;51.362;6.686;2022-09-13T16:26:37;3.77;;;3.30;;
13067;SDS011;6600;51.362;6.686;2022-09-13T16:29:03;4.53;;;4.03;;
13067;SDS011;6600;51.362;6.686;2022-09-13T16:31:29;3.33;;;3.03;;
13067;SDS011;6600;51.362;6.686;2022-09-13T16:33:54;4.30;;;3.63;;
13067;SDS011;6600;51.362;6.686;2022-09-13T16:36:19;4.47;;;3.33;;
13067;SDS011;6600;51.362;6.686;2022-09-13T16:38:45;3.97;;;3.20;;
13067;SDS011;6600;51.362;6.686;2022-09-13T16:41:10;4.30;;;3.83;;
13067;SDS011;6600;51.362;6.686;2022-09-13T16:43:35;4.87;;;3.17;;
13067;SDS011;6600;51.362;6.686;2022-09-13T16:46:04;3.10;;;2.70;;
13067;SDS011;6600;51.362;6.686;2022-09-13T16:48:31;4.10;;;3.13;;
13067;SDS011;6600;51.362;6.686;2022-09-13T16:51:01;3.73;;;3.00;;
13067;SDS011;6600;51.362;6.686;2022-09-13T16:53:34;3.57;;;2.97;;
13067;SDS011;6600;51.362;6.686;2022-09-13T16:56:07;4.47;;;3.40;;
13067;SDS011;6600;51.362;6.686;2022-09-13T16:58:39;4.60;;;3.30;;
13067;SDS011;6600;51.362;6.686;2022-09-13T17:01:07;3.60;;;3.03;;
13067;SDS011;6600;51.362;6.686;2022-09-13T17:03:35;4.73;;;3.33;;
13067;SDS011;6600;51.362;6.686;2022-09-13T17:06:03;4.70;;;3.83;;
13067;SDS011;6600;51.362;6.686;2022-09-13T17:08:34;3.10;;;2.83;;
13067;SDS011;6600;51.362;6.686;2022-09-13T17:11:11;3.37;;;2.87;;
13067;SDS011;6600;51.362;6.686;2022-09-13T17:13:39;4.17;;;3.40;;
13067;SDS011;6600;51.362;6.686;2022-09-13T17:16:06;5.17;;;3.83;;
13067;SDS011;6600;51.362;6.686;2022-09-13T17:18:42;5.70;;;4.00;;
13067;SDS011;6600;51.362;6.686;2022-09-13T17:21:07;3.90;;;3.30;;
13067;SDS011;6600;51.362;6.686;2022-09-13T17:23:33;4.33;;;3.20;;
13067;SDS011;6600;51.362;6.686;2022-09-13T17:25:58;5.30;;;3.67;;
13067;SDS011;6600;51.362;6.686;2022-09-13T17:28:24;3.43;;;3.13;;
13067;SDS011;6600;51.362;6.686;2022-09-13T17:30:49;4.37;;;3.73;;
13067;SDS011;6600;51.362;6.686;2022-09-13T17:33:14;5.40;;;3.80;;
13067;SDS011;6600;51.362;6.686;2022-09-13T17:35:40;3.87;;;3.30;;
13067;SDS011;6600;51.362;6.686;2022-09-13T17:38:07;4.73;;;3.80;;
13067;SDS011;6600;51.362;6.686;2022-09-13T17:40:33;5.73;;;4.00;;
13067;SDS011;6600;51.362;6.686;2022-09-13T17:42:58;3.40;;;2.70;;
13067;SDS011;6600;51.362;6.686;2022-09-13T17:45:23;4.10;;;3.63;;
13067;SDS011;6600;51.362;6.686;2022-09-13T17:47:52;3.53;;;2.83;;
13067;SDS011;6600;51.362;6.686;2022-09-13T17:50:19;3.37;;;3.03;;
13067;SDS011;6600;51.362;6.686;2022-09-13T17:52:45;3.23;;;2.93;;
13067;SDS011;6600;51.362;6.686;2022-09-13T17:55:10;3.50;;;3.20;;
13067;SDS011;6600;51.362;6.686;2022-09-13T17:57:36;3.53;;;3.20;;
13067;SDS011;6600;51.362;6.686;2022-09-13T18:00:03;4.13;;;2.70;;
13067;SDS011;6600;51.362;6.686;2022-09-13T18:02:32;4.13;;;3.27;;
13067;SDS011;6600;51.362;6.686;2022-09-13T18:04:57;4.10;;;3.00;;
13067;SDS011;6600;51.362;6.686;2022-09-13T18:07:23;2.33;;;2.13;;
13067;SDS011;6600;51.362;6.686;2022-09-13T18:09:48;2.83;;;2.60;;
13067;SDS011;6600;51.362;6.686;2022-09-13T18:12:13;3.33;;;2.77;;
13067;SDS011;6600;51.362;6.686;2022-09-13T18:14:39;2.97;;;2.67;;
13067;SDS011;6600;51.362;6.686;2022-09-13T18:17:04;2.97;;;2.23;;
13067;SDS011;6600;51.362;6.686;2022-09-13T18:19:37;2.17;;;2.00;;
13067;SDS011;6600;51.362;6.686;2022-09-13T18:22:05;3.70;;;3.30;;
13067;SDS011;6600;51.362;6.686;2022-09-13T18:24:34;2.50;;;2.23;;
13067;SDS011;6600;51.362;6.686;2022-09-13T18:27:00;4.03;;;2.40;;
13067;SDS011;6600;51.362;6.686;2022-09-13T18:29:26;2.50;;;2.30;;
13067;SDS011;6600;51.362;6.686;2022-09-13T18:31:53;1.97;;;1.83;;
13067;SDS011;6600;51.362;6.686;2022-09-13T18:34:18;2.73;;;2.53;;
13067;SDS011;6600;51.362;6.686;2022-09-13T18:36:44;3.07;;;2.77;;
13067;SDS011;6600;51.362;6.686;2022-09-13T18:39:14;3.13;;;2.50;;
13067;SDS011;6600;51.362;6.686;2022-09-13T18:41:41;3.30;;;2.50;;
13067;SDS011;6600;51.362;6.686;2022-09-13T18:44:09;3.27;;;2.50;;
13067;SDS011;6600;51.362;6.686;2022-09-13T18:46:35;2.20;;;2.00;;
13067;SDS011;6600;51.362;6.686;2022-09-13T18:49:01;2.67;;;2.47;;